<?xml version="1.0" encoding="utf-8"?>
<gpx xmlns:xsi="http://www.w3.org/2001/XMLSchema-instance" xmlns:xsd="http://www.w3.org/2001/XMLSchema" version="1.1" creator="Shapelink.com" xmlns="http://www.topografix.com/GPX/1/1" xmlns:gpxtpx="http://www.garmin.com/xmlschemas/TrackPointExtension/v1">
  <metadata>
    <name>Övrigt 5.59 km, 2019-05-12</name>
    <desc></desc>
    <author><name>Marian Moron</name></author> 
    <time>2019-05-12T18:03:25Z</time>
  </metadata>
  <trk>
    <name>Övrigt 5.59 km, 2019-05-12</name>
    <trkseg>
      <trkpt lat="51.229886641934" lon="4.457878059563">
        <ele>0</ele>
        <time>2019-05-12T18:03:25Z</time>
      </trkpt>
      <trkpt lat="51.229876667473" lon="4.457635403558">
        <ele>0</ele>
        <time>2019-05-12T18:03:51Z</time>
      </trkpt>
      <trkpt lat="51.22979896726" lon="4.457465334807">
        <ele>0</ele>
        <time>2019-05-12T18:04:02Z</time>
      </trkpt>
      <trkpt lat="51.229590593226" lon="4.456950015595">
        <ele>5.6</ele>
        <time>2019-05-12T18:04:33Z</time>
      </trkpt>
      <trkpt lat="51.229263782945" lon="4.456910285389">
        <ele>9</ele>
        <time>2019-05-12T18:04:59Z</time>
      </trkpt>
      <trkpt lat="51.229113998392" lon="4.456884301499">
        <ele>8.2</ele>
        <time>2019-05-12T18:05:12Z</time>
      </trkpt>
      <trkpt lat="51.228979887992" lon="4.456917074728">
        <ele>7.8</ele>
        <time>2019-05-12T18:05:32Z</time>
      </trkpt>
      <trkpt lat="51.228517458569" lon="4.456945908464">
        <ele>7</ele>
        <time>2019-05-12T18:06:04Z</time>
      </trkpt>
      <trkpt lat="51.228320819195" lon="4.457189402659">
        <ele>7.4</ele>
        <time>2019-05-12T18:06:32Z</time>
      </trkpt>
      <trkpt lat="51.227902394747" lon="4.457447732817">
        <ele>6.8</ele>
        <time>2019-05-12T18:07:08Z</time>
      </trkpt>
      <trkpt lat="51.227819246299" lon="4.457530545989">
        <ele>6.2</ele>
        <time>2019-05-12T18:07:20Z</time>
      </trkpt>
      <trkpt lat="51.22740593481" lon="4.457841179203">
        <ele>4.2</ele>
        <time>2019-05-12T18:07:58Z</time>
      </trkpt>
      <trkpt lat="51.226973596408" lon="4.458078554611">
        <ele>0</ele>
        <time>2019-05-12T18:08:30Z</time>
      </trkpt>
      <trkpt lat="51.226827332253" lon="4.458188357501">
        <ele>0</ele>
        <time>2019-05-12T18:08:45Z</time>
      </trkpt>
      <trkpt lat="51.226416116239" lon="4.458490692634">
        <ele>0</ele>
        <time>2019-05-12T18:09:23Z</time>
      </trkpt>
      <trkpt lat="51.226055862177" lon="4.458730163517">
        <ele>0</ele>
        <time>2019-05-12T18:09:54Z</time>
      </trkpt>
      <trkpt lat="51.226000709275" lon="4.458871733808">
        <ele>0</ele>
        <time>2019-05-12T18:10:42Z</time>
      </trkpt>
      <trkpt lat="51.225545572105" lon="4.458891934187">
        <ele>0</ele>
        <time>2019-05-12T18:11:15Z</time>
      </trkpt>
      <trkpt lat="51.225087417451" lon="4.458715579011">
        <ele>0</ele>
        <time>2019-05-12T18:11:49Z</time>
      </trkpt>
      <trkpt lat="51.225028073599" lon="4.458712477708">
        <ele>0</ele>
        <time>2019-05-12T18:12:02Z</time>
      </trkpt>
      <trkpt lat="51.22484945531" lon="4.458744915661">
        <ele>0</ele>
        <time>2019-05-12T18:12:29Z</time>
      </trkpt>
      <trkpt lat="51.224387193525" lon="4.458829908127">
        <ele>0</ele>
        <time>2019-05-12T18:13:08Z</time>
      </trkpt>
      <trkpt lat="51.224291807503" lon="4.458780622555">
        <ele>0</ele>
        <time>2019-05-12T18:13:20Z</time>
      </trkpt>
      <trkpt lat="51.22395007744" lon="4.459149426155">
        <ele>3.6</ele>
        <time>2019-05-12T18:14:07Z</time>
      </trkpt>
      <trkpt lat="51.223866174621" lon="4.459130147785">
        <ele>4.6</ele>
        <time>2019-05-12T18:14:18Z</time>
      </trkpt>
      <trkpt lat="51.22340609213" lon="4.459101146411">
        <ele>0</ele>
        <time>2019-05-12T18:14:51Z</time>
      </trkpt>
      <trkpt lat="51.2229476022" lon="4.459095446719">
        <ele>0</ele>
        <time>2019-05-12T18:15:25Z</time>
      </trkpt>
      <trkpt lat="51.222877445697" lon="4.45930910135">
        <ele>1</ele>
        <time>2019-05-12T18:15:34Z</time>
      </trkpt>
      <trkpt lat="51.222861100992" lon="4.459348244823">
        <ele>2.4</ele>
        <time>2019-05-12T18:15:36Z</time>
      </trkpt>
      <trkpt lat="51.222732019732" lon="4.459393171807">
        <ele>4.2</ele>
        <time>2019-05-12T18:15:50Z</time>
      </trkpt>
      <trkpt lat="51.222304123737" lon="4.459514625538">
        <ele>0</ele>
        <time>2019-05-12T18:16:40Z</time>
      </trkpt>
      <trkpt lat="51.222015870196" lon="4.459488641648">
        <ele>1</ele>
        <time>2019-05-12T18:17:14Z</time>
      </trkpt>
      <trkpt lat="51.221667937527" lon="4.459610346836">
        <ele>0</ele>
        <time>2019-05-12T18:17:49Z</time>
      </trkpt>
      <trkpt lat="51.221339031771" lon="4.459591906656">
        <ele>0</ele>
        <time>2019-05-12T18:18:19Z</time>
      </trkpt>
      <trkpt lat="51.220883810782" lon="4.459679246054">
        <ele>0</ele>
        <time>2019-05-12T18:18:52Z</time>
      </trkpt>
      <trkpt lat="51.220469242008" lon="4.459520492868">
        <ele>0</ele>
        <time>2019-05-12T18:19:16Z</time>
      </trkpt>
      <trkpt lat="51.220436301141" lon="4.45956810206">
        <ele>0</ele>
        <time>2019-05-12T18:19:19Z</time>
      </trkpt>
      <trkpt lat="51.220420375531" lon="4.459707912152">
        <ele>1.4</ele>
        <time>2019-05-12T18:19:27Z</time>
      </trkpt>
      <trkpt lat="51.220284253475" lon="4.459780499406">
        <ele>11.4</ele>
        <time>2019-05-12T18:19:51Z</time>
      </trkpt>
      <trkpt lat="51.219867756864" lon="4.45999557896">
        <ele>5</ele>
        <time>2019-05-12T18:20:18Z</time>
      </trkpt>
      <trkpt lat="51.219783183493" lon="4.460042098505">
        <ele>7.2</ele>
        <time>2019-05-12T18:20:24Z</time>
      </trkpt>
      <trkpt lat="51.219592746725" lon="4.460124073487">
        <ele>4.6</ele>
        <time>2019-05-12T18:20:45Z</time>
      </trkpt>
      <trkpt lat="51.219363669398" lon="4.46024535958">
        <ele>0</ele>
        <time>2019-05-12T18:21:06Z</time>
      </trkpt>
      <trkpt lat="51.219022861344" lon="4.460649450979">
        <ele>3.2</ele>
        <time>2019-05-12T18:21:46Z</time>
      </trkpt>
      <trkpt lat="51.219015401453" lon="4.460665125132">
        <ele>2.8</ele>
        <time>2019-05-12T18:21:47Z</time>
      </trkpt>
      <trkpt lat="51.218621619791" lon="4.460976345079">
        <ele>0</ele>
        <time>2019-05-12T18:22:31Z</time>
      </trkpt>
      <trkpt lat="51.218432943222" lon="4.461038454958">
        <ele>0</ele>
        <time>2019-05-12T18:22:56Z</time>
      </trkpt>
      <trkpt lat="51.218017033344" lon="4.461347244154">
        <ele>0</ele>
        <time>2019-05-12T18:23:30Z</time>
      </trkpt>
      <trkpt lat="51.217899938201" lon="4.461601048086">
        <ele>0</ele>
        <time>2019-05-12T18:23:49Z</time>
      </trkpt>
      <trkpt lat="51.217901949857" lon="4.462334631974">
        <ele>0</ele>
        <time>2019-05-12T18:24:29Z</time>
      </trkpt>
      <trkpt lat="51.217861381461" lon="4.462768814394">
        <ele>0.8</ele>
        <time>2019-05-12T18:24:53Z</time>
      </trkpt>
      <trkpt lat="51.217858280158" lon="4.463475492383">
        <ele>0.4</ele>
        <time>2019-05-12T18:25:33Z</time>
      </trkpt>
      <trkpt lat="51.21784973062" lon="4.463504661395">
        <ele>0</ele>
        <time>2019-05-12T18:25:35Z</time>
      </trkpt>
      <trkpt lat="51.217824920196" lon="4.464231204487">
        <ele>0.2</ele>
        <time>2019-05-12T18:26:16Z</time>
      </trkpt>
      <trkpt lat="51.217765408706" lon="4.464919358477">
        <ele>1.6</ele>
        <time>2019-05-12T18:26:50Z</time>
      </trkpt>
      <trkpt lat="51.217774377339" lon="4.464943163073">
        <ele>1.2</ele>
        <time>2019-05-12T18:26:57Z</time>
      </trkpt>
      <trkpt lat="51.217788710388" lon="4.464954394819">
        <ele>0.4</ele>
        <time>2019-05-12T18:26:59Z</time>
      </trkpt>
      <trkpt lat="51.217804803636" lon="4.465101748621">
        <ele>0.4</ele>
        <time>2019-05-12T18:27:08Z</time>
      </trkpt>
      <trkpt lat="51.217822824721" lon="4.465272152648">
        <ele>0</ele>
        <time>2019-05-12T18:27:21Z</time>
      </trkpt>
      <trkpt lat="51.217820058694" lon="4.465771713888">
        <ele>0.2</ele>
        <time>2019-05-12T18:27:45Z</time>
      </trkpt>
      <trkpt lat="51.217810251871" lon="4.465861986951">
        <ele>0.6</ele>
        <time>2019-05-12T18:27:50Z</time>
      </trkpt>
      <trkpt lat="51.217800780324" lon="4.46627781301">
        <ele>0</ele>
        <time>2019-05-12T18:28:10Z</time>
      </trkpt>
      <trkpt lat="51.217694749289" lon="4.466961105498">
        <ele>0</ele>
        <time>2019-05-12T18:28:46Z</time>
      </trkpt>
      <trkpt lat="51.217671615245" lon="4.467356898816">
        <ele>0</ele>
        <time>2019-05-12T18:29:08Z</time>
      </trkpt>
      <trkpt lat="51.217667089019" lon="4.468003981496">
        <ele>4.2</ele>
        <time>2019-05-12T18:29:53Z</time>
      </trkpt>
      <trkpt lat="51.217589975539" lon="4.468316542547">
        <ele>3.6</ele>
        <time>2019-05-12T18:30:16Z</time>
      </trkpt>
      <trkpt lat="51.21755552593" lon="4.468703953965">
        <ele>0</ele>
        <time>2019-05-12T18:30:38Z</time>
      </trkpt>
      <trkpt lat="51.217483190133" lon="4.468931690188">
        <ele>0</ele>
        <time>2019-05-12T18:31:06Z</time>
      </trkpt>
      <trkpt lat="51.21727473228" lon="4.469181219351">
        <ele>0</ele>
        <time>2019-05-12T18:32:11Z</time>
      </trkpt>
      <trkpt lat="51.217254196625" lon="4.469185410301">
        <ele>0</ele>
        <time>2019-05-12T18:32:13Z</time>
      </trkpt>
      <trkpt lat="51.21716744396" lon="4.469254058062">
        <ele>0</ele>
        <time>2019-05-12T18:32:29Z</time>
      </trkpt>
      <trkpt lat="51.217027298592" lon="4.469612887201">
        <ele>0</ele>
        <time>2019-05-12T18:33:04Z</time>
      </trkpt>
      <trkpt lat="51.217150261065" lon="4.469752613474">
        <ele>0</ele>
        <time>2019-05-12T18:33:22Z</time>
      </trkpt>
      <trkpt lat="51.217294513564" lon="4.469901392199">
        <ele>0</ele>
        <time>2019-05-12T18:33:37Z</time>
      </trkpt>
      <trkpt lat="51.217478580088" lon="4.469779435554">
        <ele>6.2</ele>
        <time>2019-05-12T18:34:06Z</time>
      </trkpt>
      <trkpt lat="51.217478663907" lon="4.46973367038">
        <ele>7.8</ele>
        <time>2019-05-12T18:34:09Z</time>
      </trkpt>
      <trkpt lat="51.217492074947" lon="4.469224469955">
        <ele>2</ele>
        <time>2019-05-12T18:34:38Z</time>
      </trkpt>
      <trkpt lat="51.217508671109" lon="4.469032272988">
        <ele>5.6</ele>
        <time>2019-05-12T18:34:55Z</time>
      </trkpt>
      <trkpt lat="51.217479166821" lon="4.468878046028">
        <ele>6.8</ele>
        <time>2019-05-12T18:35:05Z</time>
      </trkpt>
      <trkpt lat="51.217528955307" lon="4.468639413335">
        <ele>5</ele>
        <time>2019-05-12T18:35:36Z</time>
      </trkpt>
      <trkpt lat="51.217341955118" lon="4.468241775999">
        <ele>3.8</ele>
        <time>2019-05-12T18:36:05Z</time>
      </trkpt>
      <trkpt lat="51.217289232967" lon="4.468136331697">
        <ele>3.2</ele>
        <time>2019-05-12T18:36:13Z</time>
      </trkpt>
      <trkpt lat="51.217299291247" lon="4.467852269106">
        <ele>0</ele>
        <time>2019-05-12T18:36:41Z</time>
      </trkpt>
      <trkpt lat="51.217245814725" lon="4.467651019687">
        <ele>0</ele>
        <time>2019-05-12T18:36:52Z</time>
      </trkpt>
      <trkpt lat="51.217102400416" lon="4.467418924876">
        <ele>0</ele>
        <time>2019-05-12T18:37:14Z</time>
      </trkpt>
      <trkpt lat="51.216999554503" lon="4.467026065223">
        <ele>2.6</ele>
        <time>2019-05-12T18:37:37Z</time>
      </trkpt>
      <trkpt lat="51.216964350523" lon="4.466974684176">
        <ele>2.4</ele>
        <time>2019-05-12T18:37:41Z</time>
      </trkpt>
      <trkpt lat="51.216678024819" lon="4.467225889719">
        <ele>0</ele>
        <time>2019-05-12T18:38:19Z</time>
      </trkpt>
      <trkpt lat="51.216331852349" lon="4.466764298486">
        <ele>0</ele>
        <time>2019-05-12T18:38:58Z</time>
      </trkpt>
      <trkpt lat="51.216261779665" lon="4.466642677117">
        <ele>0</ele>
        <time>2019-05-12T18:39:14Z</time>
      </trkpt>
      <trkpt lat="51.21599397796" lon="4.466154347623">
        <ele>0</ele>
        <time>2019-05-12T18:39:50Z</time>
      </trkpt>
      <trkpt lat="51.21607276782" lon="4.465932981644">
        <ele>0</ele>
        <time>2019-05-12T18:40:00Z</time>
      </trkpt>
      <trkpt lat="51.216139990658" lon="4.465853772689">
        <ele>0</ele>
        <time>2019-05-12T18:40:08Z</time>
      </trkpt>
      <trkpt lat="51.216167734747" lon="4.465827118247">
        <ele>0</ele>
        <time>2019-05-12T18:40:16Z</time>
      </trkpt>
      <trkpt lat="51.216429333846" lon="4.465474156438">
        <ele>0</ele>
        <time>2019-05-12T18:40:51Z</time>
      </trkpt>
      <trkpt lat="51.216447941664" lon="4.4654153155">
        <ele>0</ele>
        <time>2019-05-12T18:40:55Z</time>
      </trkpt>
      <trkpt lat="51.216598145312" lon="4.465495111188">
        <ele>0</ele>
        <time>2019-05-12T18:41:23Z</time>
      </trkpt>
      <trkpt lat="51.216793359763" lon="4.465651433623">
        <ele>0</ele>
        <time>2019-05-12T18:42:08Z</time>
      </trkpt>
      <trkpt lat="51.217056048509" lon="4.465872548145">
        <ele>0</ele>
        <time>2019-05-12T18:43:08Z</time>
      </trkpt>
      <trkpt lat="51.217177753697" lon="4.46646053843">
        <ele>0</ele>
        <time>2019-05-12T18:43:42Z</time>
      </trkpt>
      <trkpt lat="51.217089911385" lon="4.467120780693">
        <ele>0</ele>
        <time>2019-05-12T18:44:15Z</time>
      </trkpt>
      <trkpt lat="51.217093096507" lon="4.467145758755">
        <ele>0</ele>
        <time>2019-05-12T18:44:16Z</time>
      </trkpt>
      <trkpt lat="51.217101562226" lon="4.467187584436">
        <ele>0</ele>
        <time>2019-05-12T18:44:18Z</time>
      </trkpt>
      <trkpt lat="51.217352432493" lon="4.467770713219">
        <ele>0</ele>
        <time>2019-05-12T18:44:59Z</time>
      </trkpt>
      <trkpt lat="51.217375901813" lon="4.467818490049">
        <ele>0</ele>
        <time>2019-05-12T18:45:03Z</time>
      </trkpt>
      <trkpt lat="51.21751948376" lon="4.468489042049">
        <ele>0</ele>
        <time>2019-05-12T18:45:39Z</time>
      </trkpt>
      <trkpt lat="51.217519316122" lon="4.469212986752">
        <ele>0</ele>
        <time>2019-05-12T18:46:20Z</time>
      </trkpt>
      <trkpt lat="51.217536750474" lon="4.469931399401">
        <ele>0</ele>
        <time>2019-05-12T18:47:02Z</time>
      </trkpt>
      <trkpt lat="51.217556447939" lon="4.470106581111">
        <ele>0</ele>
        <time>2019-05-12T18:47:14Z</time>
      </trkpt>
      <trkpt lat="51.217566590038" lon="4.470526011387">
        <ele>3.4</ele>
        <time>2019-05-12T18:47:40Z</time>
      </trkpt>
      <trkpt lat="51.217855681769" lon="4.471086928135">
        <ele>0</ele>
        <time>2019-05-12T18:48:25Z</time>
      </trkpt>
      <trkpt lat="51.218073108255" lon="4.471716911739">
        <ele>0</ele>
        <time>2019-05-12T18:49:04Z</time>
      </trkpt>
      <trkpt lat="51.218375359569" lon="4.472216221522">
        <ele>2</ele>
        <time>2019-05-12T18:49:45Z</time>
      </trkpt>
      <trkpt lat="51.218409222445" lon="4.472229884019">
        <ele>3.8</ele>
        <time>2019-05-12T18:49:48Z</time>
      </trkpt>
      <trkpt lat="51.218503854096" lon="4.472233236779">
        <ele>10.2</ele>
        <time>2019-05-12T18:50:08Z</time>
      </trkpt>
      <trkpt lat="51.218724633342" lon="4.472323090747">
        <ele>7.2</ele>
        <time>2019-05-12T18:50:28Z</time>
      </trkpt>
      <trkpt lat="51.218923535829" lon="4.47243431856">
        <ele>1.6</ele>
        <time>2019-05-12T18:50:46Z</time>
      </trkpt>
      <trkpt lat="51.219189912611" lon="4.47245192055">
        <ele>1.2</ele>
        <time>2019-05-12T18:51:23Z</time>
      </trkpt>
      <trkpt lat="51.219302649166" lon="4.472043554382">
        <ele>0</ele>
        <time>2019-05-12T18:52:03Z</time>
      </trkpt>
      <trkpt lat="51.219426030734" lon="4.471386748698">
        <ele>0</ele>
        <time>2019-05-12T18:52:37Z</time>
      </trkpt>
      <trkpt lat="51.219559302944" lon="4.470688536428">
        <ele>0</ele>
        <time>2019-05-12T18:53:11Z</time>
      </trkpt>
      <trkpt lat="51.2195948422" lon="4.470596670804">
        <ele>0</ele>
        <time>2019-05-12T18:53:21Z</time>
      </trkpt>
      <trkpt lat="51.219672542413" lon="4.470461554576">
        <ele>0</ele>
        <time>2019-05-12T18:53:31Z</time>
      </trkpt>
      <trkpt lat="51.219854262005" lon="4.47035728374">
        <ele>1</ele>
        <time>2019-05-12T18:54:04Z</time>
      </trkpt>
      <trkpt lat="51.219867421588" lon="4.470190148654">
        <ele>1.4</ele>
        <time>2019-05-12T18:54:21Z</time>
      </trkpt>
      <trkpt lat="51.219911342744" lon="4.469997616411">
        <ele>3.6</ele>
        <time>2019-05-12T18:54:37Z</time>
      </trkpt>
      <trkpt lat="51.220032880294" lon="4.469304684738">
        <ele>1.6</ele>
        <time>2019-05-12T18:55:10Z</time>
      </trkpt>
      <trkpt lat="51.220034137579" lon="4.469245592343">
        <ele>2.2</ele>
        <time>2019-05-12T18:55:14Z</time>
      </trkpt>
      <trkpt lat="51.220060540564" lon="4.469009138944">
        <ele>10.4</ele>
        <time>2019-05-12T18:55:33Z</time>
      </trkpt>
      <trkpt lat="51.220071520853" lon="4.4687429298">
        <ele>22</ele>
        <time>2019-05-12T18:55:45Z</time>
      </trkpt>
      <trkpt lat="51.220139330424" lon="4.468508907152">
        <ele>8.8</ele>
        <time>2019-05-12T18:56:13Z</time>
      </trkpt>
      <trkpt lat="51.220098845847" lon="4.467783369888">
        <ele>0</ele>
        <time>2019-05-12T18:56:55Z</time>
      </trkpt>
      <trkpt lat="51.220111837792" lon="4.467193367947">
        <ele>2.2</ele>
        <time>2019-05-12T18:57:27Z</time>
      </trkpt>
      <trkpt lat="51.220110245231" lon="4.46700368555">
        <ele>4.2</ele>
        <time>2019-05-12T18:57:39Z</time>
      </trkpt>
      <trkpt lat="51.220115525828" lon="4.466858175766">
        <ele>4.2</ele>
        <time>2019-05-12T18:57:47Z</time>
      </trkpt>
      <trkpt lat="51.22013044561" lon="4.466403373872">
        <ele>1</ele>
        <time>2019-05-12T18:58:14Z</time>
      </trkpt>
      <trkpt lat="51.22012793104" lon="4.466146049542">
        <ele>1</ele>
        <time>2019-05-12T18:58:29Z</time>
      </trkpt>
      <trkpt lat="51.220131786714" lon="4.466011855323">
        <ele>1.6</ele>
        <time>2019-05-12T18:58:37Z</time>
      </trkpt>
      <trkpt lat="51.220165901047" lon="4.466003557242">
        <ele>1.8</ele>
        <time>2019-05-12T18:58:41Z</time>
      </trkpt>
      <trkpt lat="51.220227340374" lon="4.466048232769">
        <ele>7</ele>
        <time>2019-05-12T18:58:59Z</time>
      </trkpt>
      <trkpt lat="51.220673508911" lon="4.466119227462">
        <ele>14.2</ele>
        <time>2019-05-12T18:59:54Z</time>
      </trkpt>
      <trkpt lat="51.220757663187" lon="4.466138170556">
        <ele>13.8</ele>
        <time>2019-05-12T19:00:03Z</time>
      </trkpt>
      <trkpt lat="51.221150774297" lon="4.466066505311">
        <ele>15</ele>
        <time>2019-05-12T19:00:33Z</time>
      </trkpt>
      <trkpt lat="51.221235431487" lon="4.465926192305">
        <ele>14.2</ele>
        <time>2019-05-12T19:00:43Z</time>
      </trkpt>
      <trkpt lat="51.221410277921" lon="4.465259495979">
        <ele>4</ele>
        <time>2019-05-12T19:01:21Z</time>
      </trkpt>
      <trkpt lat="51.221409439731" lon="4.464654993351">
        <ele>6.4</ele>
        <time>2019-05-12T19:01:51Z</time>
      </trkpt>
      <trkpt lat="51.221384880764" lon="4.464502694228">
        <ele>6.4</ele>
        <time>2019-05-12T19:01:59Z</time>
      </trkpt>
      <trkpt lat="51.221397118338" lon="4.464466400601">
        <ele>5.4</ele>
        <time>2019-05-12T19:02:02Z</time>
      </trkpt>
      <trkpt lat="51.221411283749" lon="4.46442792768">
        <ele>5.6</ele>
        <time>2019-05-12T19:02:04Z</time>
      </trkpt>
      <trkpt lat="51.221441877684" lon="4.464181918915">
        <ele>2.8</ele>
        <time>2019-05-12T19:02:16Z</time>
      </trkpt>
      <trkpt lat="51.221527792159" lon="4.463706413728">
        <ele>4.6</ele>
        <time>2019-05-12T19:02:48Z</time>
      </trkpt>
      <trkpt lat="51.221508849065" lon="4.463314392265">
        <ele>3.6</ele>
        <time>2019-05-12T19:03:12Z</time>
      </trkpt>
      <trkpt lat="51.22161320372" lon="4.462787338393">
        <ele>0</ele>
        <time>2019-05-12T19:03:55Z</time>
      </trkpt>
      <trkpt lat="51.221431819404" lon="4.46217822572">
        <ele>0</ele>
        <time>2019-05-12T19:04:34Z</time>
      </trkpt>
      <trkpt lat="51.221376582683" lon="4.462131119442">
        <ele>0</ele>
        <time>2019-05-12T19:04:39Z</time>
      </trkpt>
      <trkpt lat="51.2211119661" lon="4.461791987768">
        <ele>4.4</ele>
        <time>2019-05-12T19:05:52Z</time>
      </trkpt>
      <trkpt lat="51.221067374392" lon="4.461713952279">
        <ele>15.2</ele>
        <time>2019-05-12T19:06:06Z</time>
      </trkpt>
      <trkpt lat="51.221338528857" lon="4.462150984545">
        <ele>12.2</ele>
        <time>2019-05-12T19:06:51Z</time>
      </trkpt>
      <trkpt lat="51.221433076689" lon="4.462119049506">
        <ele>15.6</ele>
        <time>2019-05-12T19:07:07Z</time>
      </trkpt>
      <trkpt lat="51.221617227032" lon="4.462233797717">
        <ele>16.4</ele>
        <time>2019-05-12T19:07:23Z</time>
      </trkpt>
      <trkpt lat="51.221794420398" lon="4.462480560853">
        <ele>12.4</ele>
        <time>2019-05-12T19:07:42Z</time>
      </trkpt>
      <trkpt lat="51.222149812958" lon="4.4627917808">
        <ele>18</ele>
        <time>2019-05-12T19:08:20Z</time>
      </trkpt>
      <trkpt lat="51.222555832194" lon="4.462459522284">
        <ele>26.6</ele>
        <time>2019-05-12T19:08:48Z</time>
      </trkpt>
      <trkpt lat="51.22271039443" lon="4.462185685611">
        <ele>7.2</ele>
        <time>2019-05-12T19:09:09Z</time>
      </trkpt>
      <trkpt lat="51.223139715348" lon="4.461912603309">
        <ele>11.2</ele>
        <time>2019-05-12T19:09:47Z</time>
      </trkpt>
      <trkpt lat="51.223516230296" lon="4.461564503002">
        <ele>5</ele>
        <time>2019-05-12T19:10:46Z</time>
      </trkpt>
      <trkpt lat="51.223669702885" lon="4.461506416435">
        <ele>10</ele>
        <time>2019-05-12T19:11:03Z</time>
      </trkpt>
      <trkpt lat="51.224088714066" lon="4.461237525083">
        <ele>12.2</ele>
        <time>2019-05-12T19:11:40Z</time>
      </trkpt>
      <trkpt lat="51.224214358747" lon="4.461180276706">
        <ele>11.2</ele>
        <time>2019-05-12T19:11:56Z</time>
      </trkpt>
      <trkpt lat="51.224597579215" lon="4.460797307695">
        <ele>9.6</ele>
        <time>2019-05-12T19:12:45Z</time>
      </trkpt>
      <trkpt lat="51.225030923445" lon="4.460566637807">
        <ele>10.4</ele>
        <time>2019-05-12T19:13:17Z</time>
      </trkpt>
      <trkpt lat="51.225448174427" lon="4.460280898836">
        <ele>11.2</ele>
        <time>2019-05-12T19:14:00Z</time>
      </trkpt>
      <trkpt lat="51.225542135526" lon="4.460194732904">
        <ele>13.8</ele>
        <time>2019-05-12T19:14:12Z</time>
      </trkpt>
      <trkpt lat="51.225960476155" lon="4.4599000253">
        <ele>8.8</ele>
        <time>2019-05-12T19:14:45Z</time>
      </trkpt>
      <trkpt lat="51.226045887716" lon="4.459643622979">
        <ele>0</ele>
        <time>2019-05-12T19:15:23Z</time>
      </trkpt>
      <trkpt lat="51.225858552251" lon="4.45900902933">
        <ele>0</ele>
        <time>2019-05-12T19:16:02Z</time>
      </trkpt>
      <trkpt lat="51.225840782623" lon="4.458835188724">
        <ele>0</ele>
        <time>2019-05-12T19:16:18Z</time>
      </trkpt>
      <trkpt lat="51.225952764807" lon="4.458776263967">
        <ele>0</ele>
        <time>2019-05-12T19:16:42Z</time>
      </trkpt>
      <trkpt lat="51.226009007356" lon="4.458727146033">
        <ele>0</ele>
        <time>2019-05-12T19:16:46Z</time>
      </trkpt>
      <trkpt lat="51.226025519699" lon="4.458693450795">
        <ele>0</ele>
        <time>2019-05-12T19:16:48Z</time>
      </trkpt>
      <trkpt lat="51.22629868582" lon="4.458468648237">
        <ele>0</ele>
        <time>2019-05-12T19:17:18Z</time>
      </trkpt>
      <trkpt lat="51.22637160835" lon="4.458361611374">
        <ele>2.2</ele>
        <time>2019-05-12T19:17:26Z</time>
      </trkpt>
      <trkpt lat="51.226435478428" lon="4.458268320827">
        <ele>5.8</ele>
        <time>2019-05-12T19:17:34Z</time>
      </trkpt>
      <trkpt lat="51.226808221521" lon="4.458016277094">
        <ele>4</ele>
        <time>2019-05-12T19:18:10Z</time>
      </trkpt>
      <trkpt lat="51.226926071035" lon="4.457990544661">
        <ele>4.8</ele>
        <time>2019-05-12T19:18:20Z</time>
      </trkpt>
      <trkpt lat="51.227107287713" lon="4.457884681264">
        <ele>7.2</ele>
        <time>2019-05-12T19:18:37Z</time>
      </trkpt>
      <trkpt lat="51.227384728603" lon="4.457765658284">
        <ele>6.4</ele>
        <time>2019-05-12T19:19:03Z</time>
      </trkpt>
      <trkpt lat="51.22752579598" lon="4.457658453783">
        <ele>6.4</ele>
        <time>2019-05-12T19:19:17Z</time>
      </trkpt>
      <trkpt lat="51.227824443077" lon="4.457578825733">
        <ele>0</ele>
        <time>2019-05-12T19:19:40Z</time>
      </trkpt>
      <trkpt lat="51.227891330639" lon="4.457607324193">
        <ele>0</ele>
        <time>2019-05-12T19:19:52Z</time>
      </trkpt>
      <trkpt lat="51.228286537224" lon="4.457226869752">
        <ele>3.4</ele>
        <time>2019-05-12T19:20:29Z</time>
      </trkpt>
      <trkpt lat="51.228373708984" lon="4.457293589676">
        <ele>2</ele>
        <time>2019-05-12T19:20:38Z</time>
      </trkpt>
      <trkpt lat="51.228475381431" lon="4.457317981005">
        <ele>1.4</ele>
        <time>2019-05-12T19:20:48Z</time>
      </trkpt>
      <trkpt lat="51.228499269846" lon="4.457465586264">
        <ele>0</ele>
        <time>2019-05-12T19:20:54Z</time>
      </trkpt>
      <trkpt lat="51.228586441606" lon="4.45816832476">
        <ele>0</ele>
        <time>2019-05-12T19:21:32Z</time>
      </trkpt>
      <trkpt lat="51.22869926198" lon="4.458179556506">
        <ele>0</ele>
        <time>2019-05-12T19:21:45Z</time>
      </trkpt>
      <trkpt lat="51.229149453829" lon="4.458103448854">
        <ele>19.2</ele>
        <time>2019-05-12T19:22:24Z</time>
      </trkpt>
      <trkpt lat="51.229582462783" lon="4.457915778113">
        <ele>18.8</ele>
        <time>2019-05-12T19:23:03Z</time>
      </trkpt>
      <trkpt lat="51.229759656149" lon="4.457946372048">
        <ele>14.8</ele>
        <time>2019-05-12T19:23:20Z</time>
      </trkpt>
      <trkpt lat="51.229673909312" lon="4.458046451934">
        <ele>7.4</ele>
        <time>2019-05-12T19:23:34Z</time>
      </trkpt>
    </trkseg>
  </trk>
</gpx>